Time;durP1;ratioP1;P1;durP2;ratioP2;P2;SDS_P1;SDS_P2;PMS_P1;PMS_P2;Temp;Humidity;BMP_temperature;BMP_pressure;BME280_temperature;BME280_humidity;BME280_pressure;Samples;Min_cycle;Max_cycle;Signal;HPM_P1;HPM_P2
2022/09/15 00:02:34;;;;;;;66.90;28.73;;;;;;;;;;6210103;28;20412;-53
2022/09/15 00:05:35;;;;;;;60.63;26.58;;;;;;;;;;6213602;28;20054;-59
2022/09/15 00:08:36;;;;;;;65.53;26.80;;;;;;;;;;6210746;28;20136;-61
2022/09/15 00:11:37;;;;;;;61.90;26.93;;;;;;;;;;6209586;28;20073;-54
2022/09/15 00:14:38;;;;;;;59.95;25.70;;;;;;;;;;6210650;28;20096;-53
2022/09/15 00:17:40;;;;;;;62.20;26.30;;;;;;;;;;6211160;28;20048;-59
2022/09/15 00:20:41;;;;;;;;;;;;;;;;;;6206965;28;20052;-54
2022/09/15 00:23:42;;;;;;;66.53;26.20;;;;;;;;;;6210594;28;20418;-55
2022/09/15 00:26:43;;;;;;;61.53;26.10;;;;;;;;;;6210167;28;20042;-57
2022/09/15 00:29:43;;;;;;;66.95;28.85;;;;;;;;;;6208705;28;20294;-57
2022/09/15 00:32:44;;;;;;;64.65;28.23;;;;;;;;;;6209728;28;20069;-54
2022/09/15 00:35:48;;;;;;;66.85;27.95;;;;;;;;;;6207619;28;20044;-58
2022/09/15 00:38:49;;;;;;;69.70;29.30;;;;;;;;;;6207383;28;20140;-54
2022/09/15 00:41:50;;;;;;;68.28;28.08;;;;;;;;;;6208364;28;20050;-54
2022/09/15 00:45:00;;;;;;;73.07;29.58;;;;;;;;;;6209864;28;20755;-53
2022/09/15 00:48:01;;;;;;;72.75;28.88;;;;;;;;;;6210932;28;20065;-59
2022/09/15 00:51:05;;;;;;;70.10;28.00;;;;;;;;;;6208844;28;20057;-57
2022/09/15 00:54:11;;;;;;;62.53;26.77;;;;;;;;;;6210344;28;20049;-55
2022/09/15 00:57:18;;;;;;;70.68;29.13;;;;;;;;;;6209724;28;20045;-59
2022/09/15 01:00:21;;;;;;;72.47;29.70;;;;;;;;;;6212276;28;20038;-60
2022/09/15 01:03:28;;;;;;;76.57;29.77;;;;;;;;;;6212162;28;20096;-54
2022/09/15 01:06:37;;;;;;;70.95;28.55;;;;;;;;;;6210866;28;20065;-59
2022/09/15 01:10:11;;;;;;;72.13;29.60;;;;;;;;;;6210069;28;20132;-59
2022/09/15 01:13:13;;;;;;;66.38;29.52;;;;;;;;;;6194815;28;20476;-55
2022/09/15 01:16:52;;;;;;;76.30;31.63;;;;;;;;;;6212498;28;20072;-59
2022/09/15 01:20:07;;;;;;;73.47;30.45;;;;;;;;;;6213740;28;20463;-54
2022/09/15 01:23:26;;;;;;;69.47;27.52;;;;;;;;;;6213221;28;20073;-58
2022/09/15 01:26:44;;;;;;;70.15;29.30;;;;;;;;;;6211794;28;20100;-60
2022/09/15 01:30:20;;;;;;;68.97;27.73;;;;;;;;;;6212380;28;20069;-59
2022/09/15 01:33:27;;;;;;;66.80;27.48;;;;;;;;;;6213463;28;20128;-59
2022/09/15 01:36:47;;;;;;;71.38;30.30;;;;;;;;;;6213688;28;20401;-55
2022/09/15 01:39:51;;;;;;;71.13;30.90;;;;;;;;;;6217671;28;20077;-60
2022/09/15 01:42:54;;;;;;;67.40;27.92;;;;;;;;;;6212597;28;20131;-58
2022/09/15 01:45:56;;;;;;;75.25;29.90;;;;;;;;;;6214023;28;20092;-57
2022/09/15 01:48:59;;;;;;;;;;;;;;;;;;6211757;28;20421;-60
2022/09/15 01:52:00;;;;;;;73.57;30.02;;;;;;;;;;6210746;28;19925;-60
2022/09/15 01:55:05;;;;;;;79.27;30.40;;;;;;;;;;6212616;28;20038;-56
2022/09/15 01:58:06;;;;;;;72.97;31.52;;;;;;;;;;6212051;28;20048;-58
2022/09/15 02:01:30;;;;;;;74.40;30.70;;;;;;;;;;6211896;28;20073;-60
2022/09/15 02:04:37;;;;;;;67.72;28.02;;;;;;;;;;6210692;28;20080;-57
2022/09/15 02:07:46;;;;;;;67.70;26.63;;;;;;;;;;6212939;28;20077;-59
2022/09/15 02:11:15;;;;;;;70.05;29.33;;;;;;;;;;6212727;28;20064;-53
2022/09/15 02:14:32;;;;;;;67.93;27.95;;;;;;;;;;6212775;28;20101;-56
2022/09/15 02:17:37;;;;;;;70.68;28.38;;;;;;;;;;6213600;28;20041;-58
2022/09/15 02:20:45;;;;;;;67.95;27.50;;;;;;;;;;6215240;28;20390;-51
2022/09/15 02:23:55;;;;;;;62.55;26.67;;;;;;;;;;6219674;28;20053;-53
2022/09/15 02:26:57;;;;;;;65.05;26.50;;;;;;;;;;6217387;28;20580;-57
2022/09/15 02:30:04;;;;;;;58.90;25.58;;;;;;;;;;6218147;28;20070;-54
2022/09/15 02:33:10;;;;;;;61.40;25.17;;;;;;;;;;6213372;28;20144;-55
2022/09/15 02:36:13;;;;;;;58.03;23.08;;;;;;;;;;6215443;28;20065;-55
2022/09/15 02:39:18;;;;;;;54.55;23.63;;;;;;;;;;6210299;28;20034;-53
2022/09/15 02:42:26;;;;;;;58.80;25.15;;;;;;;;;;6213149;28;20111;-59
2022/09/15 02:45:29;;;;;;;51.85;23.38;;;;;;;;;;6210258;28;20056;-54
2022/09/15 02:48:30;;;;;;;56.42;25.35;;;;;;;;;;6209180;28;20072;-60
2022/09/15 02:51:30;;;;;;;59.58;25.02;;;;;;;;;;6210618;28;20129;-55
2022/09/15 02:54:31;;;;;;;60.13;25.67;;;;;;;;;;6209503;28;20057;-60
2022/09/15 02:57:31;;;;;;;65.40;27.73;;;;;;;;;;6210503;28;20046;-60
2022/09/15 03:00:32;;;;;;;56.35;25.77;;;;;;;;;;6211824;28;20049;-54
2022/09/15 03:03:33;;;;;;;55.47;26.30;;;;;;;;;;6213227;28;20473;-55
2022/09/15 03:06:34;;;;;;;56.60;24.17;;;;;;;;;;6217490;28;20512;-58
2022/09/15 03:09:36;;;;;;;55.17;25.53;;;;;;;;;;6216295;28;20137;-59
2022/09/15 03:12:41;;;;;;;61.77;26.03;;;;;;;;;;6218308;28;20483;-52
2022/09/15 03:15:42;;;;;;;64.35;26.55;;;;;;;;;;6217428;28;20729;-60
2022/09/15 03:18:42;;;;;;;57.85;27.50;;;;;;;;;;6210582;28;20042;-57
2022/09/15 03:21:43;;;;;;;65.60;28.80;;;;;;;;;;6212281;28;20088;-55
2022/09/15 03:24:44;;;;;;;60.00;26.55;;;;;;;;;;6211521;28;20042;-59
2022/09/15 03:27:45;;;;;;;60.60;25.65;;;;;;;;;;6211296;28;20420;-55
2022/09/15 03:30:46;;;;;;;59.17;27.10;;;;;;;;;;6212561;28;20061;-57
2022/09/15 03:33:48;;;;;;;55.65;24.45;;;;;;;;;;6213834;28;20060;-55
2022/09/15 03:36:48;;;;;;;54.28;23.80;;;;;;;;;;6210184;28;20045;-56
2022/09/15 03:39:49;;;;;;;52.55;22.95;;;;;;;;;;6210803;28;20057;-54
2022/09/15 03:42:49;;;;;;;56.40;24.77;;;;;;;;;;6210620;28;20058;-55
2022/09/15 03:45:50;;;;;;;53.42;24.33;;;;;;;;;;6220017;28;20481;-56
2022/09/15 03:48:51;;;;;;;56.00;25.63;;;;;;;;;;6210074;28;20044;-58
2022/09/15 03:51:51;;;;;;;65.35;26.80;;;;;;;;;;6212084;28;20046;-57
2022/09/15 03:54:52;;;;;;;57.50;24.02;;;;;;;;;;6208915;28;20129;-52
2022/09/15 03:57:53;;;;;;;58.03;25.87;;;;;;;;;;6206690;28;20092;-57
2022/09/15 04:00:53;;;;;;;55.90;24.50;;;;;;;;;;6211827;28;20061;-57
2022/09/15 04:03:54;;;;;;;59.85;25.02;;;;;;;;;;6211765;28;20099;-58
2022/09/15 04:06:55;;;;;;;61.30;27.45;;;;;;;;;;6212737;28;20489;-57
2022/09/15 04:09:56;;;;;;;58.17;26.98;;;;;;;;;;6210523;28;20081;-59
2022/09/15 04:12:56;;;;;;;65.10;26.92;;;;;;;;;;6211647;28;20421;-57
2022/09/15 04:16:01;;;;;;;59.80;25.98;;;;;;;;;;6213332;28;20117;-55
2022/09/15 04:19:02;;;;;;;60.72;26.45;;;;;;;;;;6209491;28;20704;-55
2022/09/15 04:22:03;;;;;;;57.15;26.40;;;;;;;;;;6211153;28;20184;-57
2022/09/15 04:25:03;;;;;;;61.58;26.10;;;;;;;;;;6206740;28;20064;-54
2022/09/15 04:28:05;;;;;;;64.45;26.58;;;;;;;;;;6208670;28;20054;-61
2022/09/15 04:31:12;;;;;;;60.63;26.43;;;;;;;;;;6208010;28;20034;-55
2022/09/15 04:34:12;;;;;;;64.78;27.63;;;;;;;;;;6207773;28;20050;-60
2022/09/15 04:37:13;;;;;;;61.67;27.13;;;;;;;;;;6206034;28;20145;-58
2022/09/15 04:40:14;;;;;;;60.57;27.63;;;;;;;;;;6207218;28;20123;-57
2022/09/15 04:43:14;;;;;;;66.22;27.75;;;;;;;;;;6207252;28;20049;-59
2022/09/15 04:46:16;;;;;;;63.60;28.33;;;;;;;;;;6209833;28;20128;-54
2022/09/15 04:49:17;;;;;;;;;;;;;;;;;;6209410;28;20052;-56
2022/09/15 04:52:17;;;;;;;61.30;27.40;;;;;;;;;;6215068;28;20340;-59
2022/09/15 04:55:18;;;;;;;62.05;26.38;;;;;;;;;;6213738;28;20046;-55
2022/09/15 04:58:18;;;;;;;63.55;26.90;;;;;;;;;;6212919;28;20156;-55
2022/09/15 05:01:22;;;;;;;73.20;34.35;;;;;;;;;;6214540;28;20543;-58
2022/09/15 05:04:23;;;;;;;72.15;33.13;;;;;;;;;;6217672;28;20046;-54
2022/09/15 05:07:23;;;;;;;69.38;33.20;;;;;;;;;;6215401;28;20038;-59
2022/09/15 05:10:24;;;;;;;54.03;26.35;;;;;;;;;;6216070;28;20034;-54
2022/09/15 05:13:24;;;;;;;50.28;23.17;;;;;;;;;;6217460;28;20048;-54
2022/09/15 05:16:27;;;;;;;53.55;24.05;;;;;;;;;;6213486;28;20050;-56
2022/09/15 05:19:28;;;;;;;57.17;23.65;;;;;;;;;;6214525;28;20054;-59
2022/09/15 05:22:29;;;;;;;44.90;21.90;;;;;;;;;;6211917;28;20049;-54
2022/09/15 05:25:29;;;;;;;48.13;20.85;;;;;;;;;;6217105;28;20046;-57
2022/09/15 05:28:32;;;;;;;42.28;20.65;;;;;;;;;;6212840;28;20042;-51
2022/09/15 05:31:33;;;;;;;42.08;19.42;;;;;;;;;;6215708;28;20382;-55
2022/09/15 05:34:34;;;;;;;50.78;25.60;;;;;;;;;;6219203;28;20050;-59
2022/09/15 05:37:34;;;;;;;55.30;28.35;;;;;;;;;;6214487;28;20081;-60
2022/09/15 05:40:35;;;;;;;61.80;31.52;;;;;;;;;;6214050;28;20034;-55
2022/09/15 05:43:37;;;;;;;39.80;20.10;;;;;;;;;;6212328;28;20533;-57
2022/09/15 05:46:38;;;;;;;33.63;17.10;;;;;;;;;;6211519;28;20594;-58
2022/09/15 05:49:38;;;;;;;30.98;15.57;;;;;;;;;;6213545;28;20038;-56
2022/09/15 05:52:39;;;;;;;35.45;15.18;;;;;;;;;;6213154;28;20073;-54
2022/09/15 05:55:40;;;;;;;30.25;13.82;;;;;;;;;;6213694;28;20046;-56
2022/09/15 05:58:42;;;;;;;28.35;13.63;;;;;;;;;;6210725;28;20099;-59
2022/09/15 06:01:43;;;;;;;29.35;14.13;;;;;;;;;;6209634;28;20101;-56
2022/09/15 06:04:43;;;;;;;31.73;15.80;;;;;;;;;;6214637;28;20050;-57
2022/09/15 06:07:44;;;;;;;29.92;14.88;;;;;;;;;;6210267;28;20081;-60
2022/09/15 06:10:46;;;;;;;30.98;13.93;;;;;;;;;;6200887;28;20057;-57
2022/09/15 06:13:47;;;;;;;30.88;13.82;;;;;;;;;;6201134;28;20099;-56
2022/09/15 06:16:48;;;;;;;27.45;13.52;;;;;;;;;;6214661;28;20129;-57
2022/09/15 06:19:49;;;;;;;38.50;13.60;;;;;;;;;;6218497;28;20490;-54
2022/09/15 06:22:49;;;;;;;22.77;12.77;;;;;;;;;;6219612;28;20532;-51
2022/09/15 06:25:50;;;;;;;33.37;13.73;;;;;;;;;;6219573;28;20088;-57
2022/09/15 06:28:54;;;;;;;18.17;9.73;;;;;;;;;;6200500;28;20046;-57
2022/09/15 06:31:55;;;;;;;13.55;5.78;;;;;;;;;;6219269;28;20450;-51
2022/09/15 06:34:56;;;;;;;9.07;4.40;;;;;;;;;;6219504;28;20137;-53
2022/09/15 06:37:57;;;;;;;6.50;3.00;;;;;;;;;;6218270;28;20092;-52
2022/09/15 06:40:58;;;;;;;6.85;2.72;;;;;;;;;;6218781;28;20049;-52
2022/09/15 06:43:59;;;;;;;6.47;3.30;;;;;;;;;;6215701;28;20049;-55
2022/09/15 06:47:00;;;;;;;8.43;3.00;;;;;;;;;;6217143;28;20112;-57
2022/09/15 06:50:00;;;;;;;6.22;3.38;;;;;;;;;;6216362;28;20149;-59
2022/09/15 06:53:01;;;;;;;8.10;4.45;;;;;;;;;;6217224;28;20100;-54
2022/09/15 06:56:02;;;;;;;8.95;4.80;;;;;;;;;;6217611;28;20048;-56
2022/09/15 06:59:03;;;;;;;9.30;4.10;;;;;;;;;;6215547;28;20386;-53
2022/09/15 07:02:09;;;;;;;8.63;4.13;;;;;;;;;;6217040;28;20058;-60
2022/09/15 07:05:10;;;;;;;11.32;4.53;;;;;;;;;;6217080;28;20112;-55
2022/09/15 07:08:11;;;;;;;8.98;4.22;;;;;;;;;;6215898;28;20147;-55
2022/09/15 07:11:12;;;;;;;8.37;4.67;;;;;;;;;;6216452;28;20072;-59
2022/09/15 07:14:12;;;;;;;9.60;4.35;;;;;;;;;;6216410;28;20049;-57
2022/09/15 07:17:13;;;;;;;9.70;4.47;;;;;;;;;;6216414;28;20073;-55
2022/09/15 07:20:14;;;;;;;7.20;3.67;;;;;;;;;;6215995;28;20049;-57
2022/09/15 07:23:15;;;;;;;10.70;4.13;;;;;;;;;;6216792;28;20381;-54
2022/09/15 07:26:20;;;;;;;8.38;3.90;;;;;;;;;;6216456;28;20053;-56
2022/09/15 07:29:20;;;;;;;7.90;4.13;;;;;;;;;;6211432;28;20042;-52
2022/09/15 07:32:21;;;;;;;8.10;4.55;;;;;;;;;;6212987;28;20093;-58
2022/09/15 07:35:22;;;;;;;11.52;3.80;;;;;;;;;;6216112;28;20042;-58
2022/09/15 07:38:22;;;;;;;7.95;3.45;;;;;;;;;;6215070;28;20405;-61
2022/09/15 07:41:26;;;;;;;6.93;3.97;;;;;;;;;;6215769;28;20064;-57
2022/09/15 07:44:26;;;;;;;9.57;4.43;;;;;;;;;;6215914;28;20054;-52
2022/09/15 07:47:27;;;;;;;9.40;4.43;;;;;;;;;;6215766;28;20562;-53
2022/09/15 07:50:27;;;;;;;9.40;5.07;;;;;;;;;;6215638;28;20048;-56
2022/09/15 07:53:29;;;;;;;26.92;9.23;;;;;;;;;;6213036;28;20613;-54
2022/09/15 07:56:29;;;;;;;13.70;6.45;;;;;;;;;;6213119;28;20062;-57
2022/09/15 07:59:30;;;;;;;9.63;4.32;;;;;;;;;;6214755;28;20119;-54
2022/09/15 08:02:31;;;;;;;12.13;4.80;;;;;;;;;;6215790;28;20042;-55
2022/09/15 08:05:31;;;;;;;15.55;5.28;;;;;;;;;;6216182;28;20050;-57
2022/09/15 08:08:32;;;;;;;10.20;5.78;;;;;;;;;;6208737;28;20401;-56
2022/09/15 08:11:32;;;;;;;11.68;6.15;;;;;;;;;;6208976;28;20099;-55
2022/09/15 08:14:33;;;;;;;13.07;5.20;;;;;;;;;;6210867;28;20128;-53
2022/09/15 08:17:34;;;;;;;11.27;5.60;;;;;;;;;;6207181;28;20070;-55
2022/09/15 08:20:37;;;;;;;12.45;6.47;;;;;;;;;;6209360;28;20046;-55
2022/09/15 08:23:39;;;;;;;14.23;7.00;;;;;;;;;;6209603;28;20045;-56
2022/09/15 08:26:41;;;;;;;16.55;7.47;;;;;;;;;;6209081;28;20412;-54
2022/09/15 08:29:42;;;;;;;;;;;;;;;;;;6208536;28;20080;-52
2022/09/15 08:32:42;;;;;;;15.88;7.93;;;;;;;;;;6208133;28;19921;-58
2022/09/15 08:35:43;;;;;;;21.48;8.93;;;;;;;;;;6204878;28;20038;-55
2022/09/15 08:38:44;;;;;;;24.52;9.82;;;;;;;;;;6203670;28;20044;-53
2022/09/15 08:41:48;;;;;;;24.15;10.27;;;;;;;;;;6205041;28;20053;-55
2022/09/15 08:44:58;;;;;;;20.48;8.82;;;;;;;;;;6207959;28;20049;-52
2022/09/15 08:48:03;;;;;;;18.50;8.90;;;;;;;;;;6207114;28;20133;-57
2022/09/15 08:51:13;;;;;;;22.48;8.00;;;;;;;;;;6209795;28;20041;-56
2022/09/15 08:54:27;;;;;;;17.63;8.50;;;;;;;;;;6209730;28;20069;-54
2022/09/15 08:57:27;;;;;;;18.40;8.13;;;;;;;;;;6207756;28;20074;-55
2022/09/15 09:00:28;;;;;;;18.25;7.30;;;;;;;;;;6206965;28;20076;-59
2022/09/15 09:03:57;;;;;;;14.80;7.00;;;;;;;;;;6209106;28;20057;-58
2022/09/15 09:07:24;;;;;;;16.65;7.30;;;;;;;;;;6208532;28;20088;-56
2022/09/15 09:10:50;;;;;;;13.88;7.60;;;;;;;;;;6207905;28;20558;-55
2022/09/15 09:14:19;;;;;;;17.70;8.70;;;;;;;;;;6206766;28;20163;-56
2022/09/15 09:17:49;;;;;;;24.13;10.05;;;;;;;;;;6200402;28;20053;-56
2022/09/15 09:21:07;;;;;;;24.20;10.48;;;;;;;;;;6207489;28;20149;-54
2022/09/15 09:24:16;;;;;;;23.52;10.38;;;;;;;;;;6209194;28;20092;-53
2022/09/15 09:27:25;;;;;;;19.38;9.75;;;;;;;;;;6208593;28;20088;-54
2022/09/15 09:30:31;;;;;;;18.25;9.38;;;;;;;;;;6206190;28;20061;-57
2022/09/15 09:33:48;;;;;;;20.60;9.70;;;;;;;;;;6214373;28;20196;-58
2022/09/15 09:37:06;;;;;;;15.70;7.90;;;;;;;;;;6217269;28;20228;-52
2022/09/15 09:40:12;;;;;;;14.23;6.60;;;;;;;;;;6217824;28;20188;-56
2022/09/15 09:43:14;;;;;;;12.93;6.22;;;;;;;;;;6217459;28;20061;-53
2022/09/15 09:46:17;;;;;;;10.45;5.78;;;;;;;;;;6216290;28;20066;-53
2022/09/15 09:49:23;;;;;;;10.68;5.57;;;;;;;;;;6211449;28;20052;-58
2022/09/15 09:52:42;;;;;;;10.18;4.75;;;;;;;;;;6211193;28;20049;-60
2022/09/15 09:55:44;;;;;;;10.48;5.05;;;;;;;;;;6210363;28;20117;-56
2022/09/15 09:58:45;;;;;;;10.73;5.13;;;;;;;;;;6212980;28;20096;-57
2022/09/15 10:02:04;;;;;;;8.82;4.88;;;;;;;;;;6211338;28;20081;-56
2022/09/15 10:05:05;;;;;;;10.13;4.80;;;;;;;;;;6209606;28;20064;-58
2022/09/15 10:08:06;;;;;;;8.68;4.38;;;;;;;;;;6212663;28;20133;-55
2022/09/15 10:11:09;;;;;;;9.40;4.90;;;;;;;;;;6211895;28;20882;-55
2022/09/15 10:14:17;;;;;;;9.38;4.60;;;;;;;;;;6213461;28;20054;-55
2022/09/15 10:17:25;;;;;;;10.75;5.50;;;;;;;;;;6211731;28;20129;-56
2022/09/15 10:20:31;;;;;;;8.98;4.60;;;;;;;;;;6212795;28;20070;-55
2022/09/15 10:23:33;;;;;;;9.68;4.88;;;;;;;;;;6217759;28;20386;-55
2022/09/15 10:26:33;;;;;;;9.20;5.03;;;;;;;;;;6212895;28;20562;-54
2022/09/15 10:29:38;;;;;;;10.52;5.10;;;;;;;;;;6216172;28;20050;-57
2022/09/15 10:32:39;;;;;;;12.88;5.38;;;;;;;;;;6216804;28;20424;-56
2022/09/15 10:35:41;;;;;;;11.05;6.05;;;;;;;;;;6210203;28;20132;-55
2022/09/15 10:38:47;;;;;;;9.00;5.15;;;;;;;;;;6210704;28;20048;-54
2022/09/15 10:42:03;;;;;;;9.73;5.55;;;;;;;;;;6212131;28;20056;-59
2022/09/15 10:45:17;;;;;;;10.20;6.53;;;;;;;;;;6217129;28;20154;-58
2022/09/15 10:48:26;;;;;;;12.93;6.75;;;;;;;;;;6214979;28;20141;-55
2022/09/15 10:51:39;;;;;;;12.70;6.93;;;;;;;;;;6217501;28;20069;-56
2022/09/15 10:54:54;;;;;;;12.82;7.82;;;;;;;;;;6217376;28;20096;-51
2022/09/15 10:58:07;;;;;;;15.43;7.47;;;;;;;;;;6217205;28;20042;-57
2022/09/15 11:01:37;;;;;;;14.43;7.85;;;;;;;;;;6216108;28;20522;-55
2022/09/15 11:04:56;;;;;;;19.60;9.77;;;;;;;;;;6217320;28;20045;-56
2022/09/15 11:08:32;;;;;;;14.70;7.78;;;;;;;;;;6214182;28;20188;-57
2022/09/15 11:12:15;;;;;;;16.23;8.15;;;;;;;;;;6210868;28;20054;-59
2022/09/15 11:15:41;;;;;;;15.77;8.43;;;;;;;;;;6209412;28;20493;-56
2022/09/15 11:19:17;;;;;;;14.38;7.28;;;;;;;;;;6210522;28;20086;-57
2022/09/15 11:22:25;;;;;;;12.30;7.10;;;;;;;;;;6208902;28;20834;-54
2022/09/15 11:25:30;;;;;;;11.23;6.97;;;;;;;;;;6211245;28;20076;-55
2022/09/15 11:28:40;;;;;;;15.10;8.93;;;;;;;;;;6209314;28;20048;-55
2022/09/15 11:31:42;;;;;;;25.25;13.75;;;;;;;;;;6208611;28;20050;-57
2022/09/15 11:34:52;;;;;;;12.60;7.10;;;;;;;;;;6208087;28;20523;-53
2022/09/15 11:37:56;;;;;;;11.02;6.88;;;;;;;;;;6208414;28;20052;-59
2022/09/15 11:41:17;;;;;;;14.27;7.30;;;;;;;;;;6209769;28;20412;-57
2022/09/15 11:44:35;;;;;;;12.10;6.90;;;;;;;;;;6208252;28;20421;-55
2022/09/15 11:47:41;;;;;;;13.88;7.60;;;;;;;;;;6210390;28;20050;-54
2022/09/15 11:50:45;;;;;;;14.55;7.57;;;;;;;;;;6210565;28;20137;-55
2022/09/15 11:54:06;;;;;;;13.57;7.70;;;;;;;;;;6209241;28;20057;-55
2022/09/15 11:57:16;;;;;;;15.38;7.63;;;;;;;;;;6209723;28;20831;-55
2022/09/15 12:00:16;;;;;;;13.20;7.55;;;;;;;;;;6209738;28;20512;-57
2022/09/15 12:03:22;;;;;;;19.42;7.82;;;;;;;;;;6217230;28;20056;-55
2022/09/15 12:06:33;;;;;;;18.73;9.02;;;;;;;;;;6216233;28;20136;-60
2022/09/15 12:09:33;;;;;;;18.10;9.35;;;;;;;;;;6215873;28;20038;-56
2022/09/15 12:12:35;;;;;;;18.47;10.10;;;;;;;;;;6210981;28;20123;-55
2022/09/15 12:15:36;;;;;;;18.03;8.90;;;;;;;;;;6209178;28;20417;-58
2022/09/15 12:18:48;;;;;;;16.23;9.10;;;;;;;;;;6208291;28;20276;-55
2022/09/15 12:21:58;;;;;;;18.17;10.05;;;;;;;;;;6211140;28;20105;-58
2022/09/15 12:25:05;;;;;;;15.77;8.60;;;;;;;;;;6213561;28;20136;-55
2022/09/15 12:28:21;;;;;;;17.40;9.40;;;;;;;;;;6214791;28;20050;-58
2022/09/15 12:31:22;;;;;;;20.08;10.75;;;;;;;;;;6209729;28;20045;-56
2022/09/15 12:34:35;;;;;;;22.17;12.00;;;;;;;;;;6209223;28;20041;-59
2022/09/15 12:37:40;;;;;;;22.75;11.48;;;;;;;;;;6209306;28;20073;-55
2022/09/15 12:40:41;;;;;;;31.27;15.20;;;;;;;;;;6206818;28;20524;-55
2022/09/15 12:43:53;;;;;;;34.20;16.27;;;;;;;;;;6210423;28;20119;-54
2022/09/15 12:46:56;;;;;;;40.50;18.27;;;;;;;;;;6207841;28;20090;-54
2022/09/15 12:50:22;;;;;;;41.25;18.52;;;;;;;;;;6207300;28;20069;-55
2022/09/15 12:53:46;;;;;;;40.13;19.08;;;;;;;;;;6197798;28;20695;-54
2022/09/15 12:56:51;;;;;;;38.00;19.50;;;;;;;;;;6187521;28;20128;-59
2022/09/15 13:00:22;;;;;;;41.55;18.95;;;;;;;;;;6196159;28;20670;-55
2022/09/15 13:03:52;;;;;;;40.25;20.27;;;;;;;;;;6193936;28;20525;-54
2022/09/15 13:07:14;;;;;;;41.97;19.67;;;;;;;;;;6196837;28;20081;-52
2022/09/15 13:10:26;;;;;;;40.85;19.48;;;;;;;;;;6197626;28;20578;-52
2022/09/15 13:13:35;;;;;;;55.30;25.77;;;;;;;;;;6201999;28;20049;-53
2022/09/15 13:16:36;;;;;;;61.88;26.02;;;;;;;;;;6200484;28;20185;-55
2022/09/15 13:19:43;;;;;;;60.75;26.02;;;;;;;;;;6200253;28;20050;-54
2022/09/15 13:22:48;;;;;;;62.17;26.35;;;;;;;;;;6198706;28;20085;-55
2022/09/15 13:25:51;;;;;;;58.55;26.52;;;;;;;;;;6202018;28;20077;-55
2022/09/15 13:28:53;;;;;;;61.45;27.50;;;;;;;;;;6202243;28;20137;-57
2022/09/15 13:32:19;;;;;;;70.30;29.10;;;;;;;;;;6196392;28;20466;-58
2022/09/15 13:35:45;;;;;;;66.32;27.40;;;;;;;;;;6199303;28;20562;-53
2022/09/15 13:38:51;;;;;;;67.72;28.27;;;;;;;;;;6199029;28;20513;-60
2022/09/15 13:41:52;;;;;;;68.75;29.40;;;;;;;;;;6197949;28;21349;-60
2022/09/15 13:45:17;;;;;;;79.25;29.77;;;;;;;;;;6201029;28;20046;-55
2022/09/15 13:48:32;;;;;;;79.20;31.25;;;;;;;;;;6199379;28;20109;-54
2022/09/15 13:51:36;;;;;;;88.95;33.25;;;;;;;;;;6197864;28;20042;-52
2022/09/15 13:54:36;;;;;;;107.97;35.60;;;;;;;;;;6196143;28;20658;-51
2022/09/15 13:57:40;;;;;;;101.40;34.60;;;;;;;;;;6201897;28;20129;-54
2022/09/15 14:00:52;;;;;;;90.95;35.00;;;;;;;;;;6197418;28;20160;-55
2022/09/15 14:03:57;;;;;;;100.88;33.88;;;;;;;;;;6197931;28;20042;-53
2022/09/15 14:07:00;;;;;;;104.70;34.53;;;;;;;;;;6198498;28;20046;-57
2022/09/15 14:10:00;;;;;;;99.38;35.30;;;;;;;;;;6195001;28;20061;-58
2022/09/15 14:13:01;;;;;;;98.25;34.22;;;;;;;;;;6199676;28;20096;-56
2022/09/15 14:16:05;;;;;;;84.55;31.38;;;;;;;;;;6198288;28;20141;-55
2022/09/15 14:19:35;;;;;;;83.85;28.70;;;;;;;;;;6197461;28;20052;-57
2022/09/15 14:22:39;;;;;;;83.63;29.50;;;;;;;;;;6196001;28;20052;-54
2022/09/15 14:25:44;;;;;;;82.78;27.98;;;;;;;;;;6198407;28;20080;-55
2022/09/15 14:28:54;;;;;;;77.63;29.00;;;;;;;;;;6198101;28;20496;-56
2022/09/15 14:32:00;;;;;;;80.45;28.35;;;;;;;;;;6195598;28;20076;-57
2022/09/15 14:35:05;;;;;;;77.60;28.63;;;;;;;;;;6198615;28;20057;-58
2022/09/15 14:38:19;;;;;;;78.93;28.48;;;;;;;;;;6196648;28;20632;-52
2022/09/15 14:41:19;;;;;;;80.68;28.98;;;;;;;;;;6192209;28;20143;-53
2022/09/15 14:44:24;;;;;;;79.88;30.55;;;;;;;;;;6198548;28;20054;-57
2022/09/15 14:47:26;;;;;;;78.25;28.38;;;;;;;;;;6200645;28;20042;-55
2022/09/15 14:50:29;;;;;;;76.30;29.75;;;;;;;;;;6196875;28;21117;-54
2022/09/15 14:53:34;;;;;;;79.35;28.70;;;;;;;;;;6196565;28;20124;-55
2022/09/15 14:56:40;;;;;;;89.20;30.75;;;;;;;;;;6196171;28;20508;-55
2022/09/15 14:59:48;;;;;;;95.13;35.95;;;;;;;;;;6196066;28;20050;-55
2022/09/15 15:02:57;;;;;;;87.22;33.08;;;;;;;;;;6197156;28;20154;-53
2022/09/15 15:06:06;;;;;;;94.38;34.55;;;;;;;;;;6193892;28;20065;-55
2022/09/15 15:09:24;;;;;;;96.03;34.33;;;;;;;;;;6197660;28;20417;-54
2022/09/15 15:12:32;;;;;;;96.72;34.55;;;;;;;;;;6192996;28;20128;-53
2022/09/15 15:15:33;;;;;;;93.35;33.50;;;;;;;;;;6193483;28;20484;-55
2022/09/15 15:18:38;;;;;;;95.17;35.17;;;;;;;;;;6198719;28;20089;-55
2022/09/15 15:21:42;;;;;;;95.97;34.78;;;;;;;;;;6194936;28;20137;-52
2022/09/15 15:24:45;;;;;;;87.43;33.45;;;;;;;;;;6195965;28;20141;-54
2022/09/15 15:27:54;;;;;;;85.60;32.78;;;;;;;;;;6193918;28;20062;-55
2022/09/15 15:31:06;;;;;;;85.03;33.45;;;;;;;;;;6196460;28;20456;-55
2022/09/15 15:34:22;;;;;;;73.38;28.30;;;;;;;;;;6193515;28;20141;-55
2022/09/15 15:37:28;;;;;;;76.20;28.13;;;;;;;;;;6199384;28;20624;-55
2022/09/15 15:40:30;;;;;;;68.72;25.70;;;;;;;;;;6198503;28;20401;-55
2022/09/15 15:43:31;;;;;;;59.83;24.33;;;;;;;;;;6195408;28;20058;-55
2022/09/15 15:46:47;;;;;;;53.03;22.13;;;;;;;;;;6197407;28;20078;-54
2022/09/15 15:49:53;;;;;;;39.80;18.35;;;;;;;;;;6197724;28;20061;-54
2022/09/15 15:52:54;;;;;;;39.38;18.10;;;;;;;;;;6200727;28;20045;-55
2022/09/15 15:55:56;;;;;;;32.97;14.90;;;;;;;;;;6198943;28;20041;-55
2022/09/15 15:58:57;;;;;;;37.45;17.35;;;;;;;;;;6199479;28;20383;-57
2022/09/15 16:01:57;;;;;;;35.70;15.65;;;;;;;;;;6194865;28;20070;-65
2022/09/15 16:04:58;;;;;;;36.13;16.90;;;;;;;;;;6201216;28;20065;-53
2022/09/15 16:08:03;;;;;;;40.33;17.27;;;;;;;;;;6202199;28;20056;-53
2022/09/15 16:11:07;;;;;;;38.65;17.55;;;;;;;;;;6195094;28;20905;-58
2022/09/15 16:14:11;;;;;;;39.03;18.95;;;;;;;;;;6199845;28;20100;-54
2022/09/15 16:17:11;;;;;;;49.63;19.95;;;;;;;;;;6191593;28;20148;-55
2022/09/15 16:20:14;;;;;;;49.13;21.85;;;;;;;;;;6201227;28;20053;-54
2022/09/15 16:23:17;;;;;;;47.65;20.05;;;;;;;;;;6191046;28;20141;-51
2022/09/15 16:26:22;;;;;;;48.78;20.52;;;;;;;;;;6196650;28;20185;-56
2022/09/15 16:29:27;;;;;;;54.42;21.58;;;;;;;;;;6197718;28;20176;-55
2022/09/15 16:32:30;;;;;;;38.50;18.90;;;;;;;;;;6196509;28;20160;-52
2022/09/15 16:35:40;;;;;;;41.08;18.95;;;;;;;;;;6195927;28;20082;-54
2022/09/15 16:38:41;;;;;;;37.17;17.83;;;;;;;;;;6193854;28;20053;-53
2022/09/15 16:41:42;;;;;;;34.53;15.67;;;;;;;;;;6195365;28;20168;-57
2022/09/15 16:44:44;;;;;;;36.30;16.60;;;;;;;;;;6195620;28;20062;-51
2022/09/15 16:47:44;;;;;;;35.95;16.60;;;;;;;;;;6194475;28;20058;-58
2022/09/15 16:50:46;;;;;;;30.98;15.63;;;;;;;;;;6199323;28;20168;-52
2022/09/15 16:53:49;;;;;;;39.70;16.73;;;;;;;;;;6198846;28;20532;-59
2022/09/15 16:56:50;;;;;;;34.38;15.90;;;;;;;;;;6179588;28;20095;-49
2022/09/15 16:59:51;;;;;;;31.63;15.77;;;;;;;;;;6197507;28;20074;-52
2022/09/15 17:02:52;;;;;;;34.17;16.85;;;;;;;;;;6195130;28;21552;-51
2022/09/15 17:05:55;;;;;;;34.70;16.85;;;;;;;;;;6196101;28;20502;-53
2022/09/15 17:08:55;;;;;;;41.63;18.65;;;;;;;;;;6194788;28;20521;-52
2022/09/15 17:11:56;;;;;;;48.47;17.95;;;;;;;;;;6196097;28;20050;-55
2022/09/15 17:14:56;;;;;;;44.55;18.95;;;;;;;;;;6196675;28;20042;-49
2022/09/15 17:17:57;;;;;;;49.78;19.85;;;;;;;;;;6195342;28;20045;-52
2022/09/15 17:20:58;;;;;;;51.08;21.02;;;;;;;;;;6196758;28;20052;-53
2022/09/15 17:23:58;;;;;;;54.50;21.13;;;;;;;;;;6195116;28;20081;-50
2022/09/15 17:26:59;;;;;;;50.25;20.23;;;;;;;;;;6205462;28;20119;-49
2022/09/15 17:29:59;;;;;;;48.72;19.55;;;;;;;;;;6190168;28;20216;-51
2022/09/15 17:33:02;;;;;;;49.05;21.25;;;;;;;;;;6194475;28;20101;-60
2022/09/15 17:36:03;;;;;;;48.05;20.23;;;;;;;;;;6187622;28;20616;-61
2022/09/15 17:39:04;;;;;;;48.30;21.35;;;;;;;;;;6191266;28;20068;-50
2022/09/15 17:42:04;;;;;;;42.55;19.95;;;;;;;;;;6193285;28;20143;-62
2022/09/15 17:45:16;;;;;;;43.35;18.23;;;;;;;;;;6194703;28;20058;-51
2022/09/15 17:48:17;;;;;;;39.85;18.63;;;;;;;;;;6186862;28;20054;-48
2022/09/15 17:51:18;;;;;;;44.60;19.10;;;;;;;;;;6189378;28;20497;-49
2022/09/15 17:54:19;;;;;;;48.35;19.85;;;;;;;;;;6194521;28;20088;-49
2022/09/15 17:57:19;;;;;;;42.35;19.45;;;;;;;;;;6191898;28;20141;-49
2022/09/15 18:00:22;;;;;;;49.47;20.55;;;;;;;;;;6199024;28;20087;-58
2022/09/15 18:03:29;;;;;;;49.00;20.95;;;;;;;;;;6196256;28;20038;-46
2022/09/15 18:06:30;;;;;;;50.28;21.52;;;;;;;;;;6195301;28;20181;-55
2022/09/15 18:09:31;;;;;;;48.13;20.15;;;;;;;;;;6192919;28;20394;-49